Time,TemperatureF,DewpointF,PressureIn,WindDirection,WindDirectionDegrees,WindSpeedMPH,WindSpeedGustMPH,Humidity,HourlyPrecipIn,Conditions,Clouds,dailyrainin,SoftwareType,DateUTC
2013-05-11 00:02:00,49.0,26.0,30.28,North,-999,11.0,-999.0,40,-99.99,,,-99.99,,2013-05-11 06:02:00,
2013-05-11 00:12:00,48.0,26.0,30.29,West,259,13.0,-999.0,42,-99.99,,,-99.99,,2013-05-11 06:12:00,
2013-05-11 00:21:00,48.0,25.0,30.28,North,-999,16.0,-999.0,41,-99.99,,,-99.99,,2013-05-11 06:21:00,
2013-05-11 00:32:00,49.0,24.0,30.30,North,-999,15.0,-999.0,37,-99.99,,,-99.99,,2013-05-11 06:32:00,
2013-05-11 00:42:00,48.0,25.0,30.29,West,281,13.0,-999.0,39,-99.99,,,-99.99,,2013-05-11 06:42:00,
2013-05-11 00:52:00,47.0,25.0,30.30,South,169,13.0,-999.0,43,-99.99,,,-99.99,,2013-05-11 06:52:00,
2013-05-11 01:02:00,47.0,25.0,30.30,South,169,13.0,-999.0,43,-99.99,,,-99.99,,2013-05-11 07:02:00,
2013-05-11 01:11:00,45.0,24.0,30.30,South,173,13.0,-999.0,43,-99.99,,,-99.99,,2013-05-11 07:11:00,
2013-05-11 01:21:00,44.0,24.0,30.30,North,-999,12.0,-999.0,45,-99.99,,,-99.99,,2013-05-11 07:21:00,
2013-05-11 01:32:00,43.0,24.0,30.31,NNW,342,12.0,-999.0,47,-99.99,,,-99.99,,2013-05-11 07:32:00,
2013-05-11 01:42:00,42.0,23.0,30.31,NNW,337,14.0,-999.0,45,-99.99,,,-99.99,,2013-05-11 07:42:00,
2013-05-11 01:52:00,42.0,22.0,30.30,North,-999,15.0,-999.0,44,-99.99,,,-99.99,,2013-05-11 07:52:00,
2013-05-11 02:01:00,42.0,22.0,30.32,NNW,344,15.0,-999.0,45,-99.99,,,-99.99,,2013-05-11 08:01:00,
2013-05-11 02:12:00,41.0,22.0,30.33,West,259,14.0,-999.0,46,-99.99,,,-99.99,,2013-05-11 08:12:00,
2013-05-11 02:21:00,40.0,22.0,30.33,North,-999,17.0,-999.0,47,-99.99,,,-99.99,,2013-05-11 08:21:00,
2013-05-11 02:32:00,40.0,21.0,30.29,NNW,344,13.0,-999.0,47,-99.99,,,-99.99,,2013-05-11 08:32:00,
2013-05-11 02:42:00,39.0,21.0,30.32,North,-999,13.0,-999.0,47,-99.99,,,-99.99,,2013-05-11 08:42:00,
2013-05-11 02:52:00,39.0,21.0,30.30,North,-999,13.0,-999.0,48,-99.99,,,-99.99,,2013-05-11 08:52:00,
2013-05-11 03:01:00,38.0,21.0,30.32,North,-999,12.0,-999.0,49,-99.99,,,-99.99,,2013-05-11 09:01:00,
2013-05-11 03:11:00,38.0,21.0,30.30,North,-999,12.0,-999.0,49,-99.99,,,-99.99,,2013-05-11 09:11:00,
2013-05-11 03:21:00,38.0,21.0,30.32,North,-999,13.0,-999.0,50,-99.99,,,-99.99,,2013-05-11 09:21:00,
2013-05-11 03:32:00,37.0,21.0,30.32,WSW,258,14.0,-999.0,51,-99.99,,,-99.99,,2013-05-11 09:32:00,
2013-05-11 03:42:00,37.0,20.0,30.31,North,-999,13.0,-999.0,50,-99.99,,,-99.99,,2013-05-11 09:42:00,
2013-05-11 03:52:00,36.0,20.0,30.33,NNW,335,9.0,-999.0,51,-99.99,,,-99.99,,2013-05-11 09:52:00,
2013-05-11 04:03:00,36.0,19.0,30.32,WNW,300,6.0,-999.0,51,-99.99,,,-99.99,,2013-05-11 10:03:00,
2013-05-11 04:12:00,37.0,19.0,30.32,WNW,287,3.0,-999.0,47,-99.99,,,-99.99,,2013-05-11 10:12:00,
2013-05-11 04:22:00,37.0,19.0,30.34,NW,310,6.0,-999.0,47,-99.99,,,-99.99,,2013-05-11 10:22:00,
2013-05-11 04:33:00,37.0,18.0,30.32,NW,306,7.0,-999.0,46,-99.99,,,-99.99,,2013-05-11 10:33:00,
2013-05-11 04:42:00,36.0,18.0,30.31,NW,307,8.0,-999.0,48,-99.99,,,-99.99,,2013-05-11 10:42:00,
2013-05-11 04:52:00,35.0,18.0,30.33,WNW,295,7.0,-999.0,49,-99.99,,,-99.99,,2013-05-11 10:52:00,
2013-05-11 05:02:00,35.0,18.0,30.33,WNW,292,7.0,-999.0,50,-99.99,,,-99.99,,2013-05-11 11:02:00,
2013-05-11 05:12:00,35.0,18.0,30.32,WNW,290,8.0,-999.0,49,-99.99,,,-99.99,,2013-05-11 11:12:00,
2013-05-11 05:21:00,35.0,18.0,30.33,WNW,289,8.0,-999.0,50,-99.99,,,-99.99,,2013-05-11 11:21:00,
2013-05-11 05:32:00,34.0,18.0,30.32,NW,321,8.0,-999.0,51,-99.99,,,-99.99,,2013-05-11 11:32:00,
2013-05-11 05:42:00,34.0,18.0,30.34,WNW,301,9.0,-999.0,53,-99.99,,,-99.99,,2013-05-11 11:42:00,
2013-05-11 05:51:00,32.0,19.0,30.35,WNW,303,10.0,-999.0,57,-99.99,,,-99.99,,2013-05-11 11:51:00,
2013-05-11 06:01:00,32.0,19.0,30.35,WNW,303,10.0,-999.0,57,-99.99,,,-99.99,,2013-05-11 12:01:00,
2013-05-11 06:11:00,33.0,19.0,30.36,WNW,294,8.0,-999.0,56,-99.99,,,-99.99,,2013-05-11 12:11:00,
2013-05-11 06:22:00,33.0,19.0,30.37,NW,315,10.0,-999.0,57,-99.99,,,-99.99,,2013-05-11 12:22:00,
2013-05-11 06:32:00,34.0,18.0,30.36,NW,321,11.0,-999.0,53,-99.99,,,-99.99,,2013-05-11 12:32:00,
2013-05-11 06:42:00,34.0,20.0,30.37,NW,317,9.0,-999.0,55,-99.99,,,-99.99,,2013-05-11 12:42:00,
2013-05-11 06:51:00,35.0,19.0,30.37,NW,326,15.0,-999.0,52,-99.99,,,-99.99,,2013-05-11 12:51:00,
2013-05-11 07:02:00,37.0,19.0,30.38,North,-999,15.0,-999.0,49,-99.99,,,-99.99,,2013-05-11 13:02:00,
2013-05-11 07:11:00,38.0,20.0,30.39,NNW,341,12.0,-999.0,47,-99.99,,,-99.99,,2013-05-11 13:11:00,
2013-05-11 07:21:00,39.0,21.0,30.39,East,90,13.0,-999.0,47,-99.99,,,-99.99,,2013-05-11 13:21:00,
2013-05-11 07:32:00,40.0,20.0,30.39,North,5,13.0,-999.0,44,-99.99,,,-99.99,,2013-05-11 13:32:00,
2013-05-11 07:42:00,41.0,19.0,30.37,North,6,14.0,-999.0,41,-99.99,,,-99.99,,2013-05-11 13:42:00,
2013-05-11 07:52:00,42.0,19.0,30.38,North,5,18.0,-999.0,40,-99.99,,,-99.99,,2013-05-11 13:52:00,
2013-05-11 08:02:00,42.0,20.0,30.40,North,5,18.0,-999.0,40,-99.99,,,-99.99,,2013-05-11 14:02:00,
2013-05-11 08:11:00,42.0,19.0,30.39,NNE,17,17.0,-999.0,39,-99.99,,,-99.99,,2013-05-11 14:11:00,
2013-05-11 08:21:00,43.0,19.0,30.39,NNE,12,18.0,-999.0,38,-99.99,,,-99.99,,2013-05-11 14:21:00,
2013-05-11 08:32:00,43.0,19.0,30.39,NE,36,20.0,-999.0,38,-99.99,,,-99.99,,2013-05-11 14:32:00,
2013-05-11 08:42:00,43.0,20.0,30.40,NNE,14,12.0,-999.0,39,-99.99,,,-99.99,,2013-05-11 14:42:00,
2013-05-11 08:51:00,44.0,20.0,30.39,NNE,24,12.0,-999.0,38,-99.99,,,-99.99,,2013-05-11 14:51:00,
2013-05-11 09:01:00,44.0,20.0,30.39,NNE,24,12.0,-999.0,38,-99.99,,,-99.99,,2013-05-11 15:01:00,
2013-05-11 09:11:00,44.0,20.0,30.41,NNE,33,13.0,-999.0,38,-99.99,,,-99.99,,2013-05-11 15:11:00,
2013-05-11 09:21:00,44.0,20.0,30.41,North,5,14.0,-999.0,38,-99.99,,,-99.99,,2013-05-11 15:21:00,
2013-05-11 09:32:00,45.0,21.0,30.40,NE,43,11.0,-999.0,37,-99.99,,,-99.99,,2013-05-11 15:32:00,
2013-05-11 09:43:00,45.0,21.0,30.40,NE,43,11.0,-999.0,37,-99.99,,,-99.99,,2013-05-11 15:43:00,
2013-05-11 09:53:00,45.0,21.0,30.39,NNE,26,14.0,-999.0,38,-99.99,,,-99.99,,2013-05-11 15:53:00,
2013-05-11 10:02:00,45.0,21.0,30.39,NNE,26,14.0,-999.0,38,-99.99,,,-99.99,,2013-05-11 16:02:00,
2013-05-11 10:12:00,46.0,20.0,30.40,North,10,9.0,-999.0,35,-99.99,,,-99.99,,2013-05-11 16:12:00,
2013-05-11 10:23:00,47.0,20.0,30.40,NE,42,12.0,-999.0,35,-99.99,,,-99.99,,2013-05-11 16:23:00,
2013-05-11 10:33:00,46.0,21.0,30.39,NE,39,8.0,-999.0,36,-99.99,,,-99.99,,2013-05-11 16:33:00,
2013-05-11 10:42:00,48.0,21.0,30.38,NNE,29,15.0,-999.0,34,-99.99,,,-99.99,,2013-05-11 16:42:00,
2013-05-11 10:52:00,47.0,20.0,30.39,NE,35,10.0,-999.0,33,-99.99,,,-99.99,,2013-05-11 16:52:00,
2013-05-11 11:02:00,47.0,20.0,30.39,NE,35,10.0,-999.0,33,-99.99,,,-99.99,,2013-05-11 17:02:00,
2013-05-11 11:12:00,48.0,20.0,30.39,NE,48,6.0,-999.0,33,-99.99,,,-99.99,,2013-05-11 17:12:00,
2013-05-11 11:22:00,48.0,19.0,30.38,NE,44,9.0,-999.0,31,-99.99,,,-99.99,,2013-05-11 17:22:00,
2013-05-11 11:32:00,48.0,19.0,30.38,NE,44,9.0,-999.0,31,-99.99,,,-99.99,,2013-05-11 17:32:00,
2013-05-11 11:42:00,51.0,20.0,30.37,WSW,258,12.0,-999.0,30,-99.99,,,-99.99,,2013-05-11 17:42:00,
2013-05-11 11:52:00,50.0,20.0,30.37,NNE,25,9.0,-999.0,30,-99.99,,,-99.99,,2013-05-11 17:52:00,
2013-05-11 12:01:00,50.0,20.0,30.37,NNE,25,9.0,-999.0,30,-99.99,,,-99.99,,2013-05-11 18:01:00,
2013-05-11 12:12:00,50.0,21.0,30.37,NNW,343,10.0,-999.0,31,-99.99,,,-99.99,,2013-05-11 18:12:00,
2013-05-11 12:21:00,50.0,20.0,30.36,NE,39,4.0,-999.0,30,-99.99,,,-99.99,,2013-05-11 18:21:00,
2013-05-11 12:32:00,51.0,19.0,30.36,NNW,334,3.0,-999.0,28,-99.99,,,-99.99,,2013-05-11 18:32:00,
2013-05-11 12:42:00,51.0,21.0,30.36,SSW,210,1.0,-999.0,30,-99.99,,,-99.99,,2013-05-11 18:42:00,
2013-05-11 12:51:00,52.0,19.0,30.36,NNW,340,10.0,-999.0,27,-99.99,,,-99.99,,2013-05-11 18:51:00,
2013-05-11 13:02:00,52.0,19.0,30.36,NNW,340,10.0,-999.0,27,-99.99,,,-99.99,,2013-05-11 19:02:00,
2013-05-11 13:11:00,53.0,18.0,30.36,NNW,334,4.0,-999.0,25,-99.99,,,-99.99,,2013-05-11 19:11:00,
2013-05-11 13:21:00,52.0,20.0,30.35,WNW,283,8.0,-999.0,29,-99.99,,,-99.99,,2013-05-11 19:21:00,
2013-05-11 13:32:00,53.0,20.0,30.34,NNE,18,13.0,-999.0,27,-99.99,,,-99.99,,2013-05-11 19:32:00,
2013-05-11 13:42:00,55.0,21.0,30.33,South,173,9.0,-999.0,26,-99.99,,,-99.99,,2013-05-11 19:42:00,
2013-05-11 13:52:00,54.0,19.0,30.32,NNE,33,5.0,-999.0,25,-99.99,,,-99.99,,2013-05-11 19:52:00,
2013-05-11 14:02:00,54.0,19.0,30.30,NNW,340,13.0,-999.0,25,-99.99,,,-99.99,,2013-05-11 20:02:00,
2013-05-11 14:12:00,55.0,21.0,30.30,NNE,12,11.0,-999.0,26,-99.99,,,-99.99,,2013-05-11 20:12:00,
2013-05-11 14:22:00,55.0,21.0,30.31,NNE,15,3.0,-999.0,26,-99.99,,,-99.99,,2013-05-11 20:22:00,
2013-05-11 14:32:00,56.0,19.0,30.30,North,0,0.0,-999.0,23,-99.99,,,-99.99,,2013-05-11 20:32:00,
2013-05-11 14:42:00,56.0,20.0,30.30,North,0,0.0,-999.0,24,-99.99,,,-99.99,,2013-05-11 20:42:00,
2013-05-11 14:52:00,57.0,21.0,30.29,NE,43,12.0,-999.0,24,-99.99,,,-99.99,,2013-05-11 20:52:00,
2013-05-11 15:02:00,56.0,22.0,30.29,North,4,6.0,-999.0,26,-99.99,,,-99.99,,2013-05-11 21:02:00,
2013-05-11 15:11:00,58.0,20.0,30.29,NNE,13,9.0,-999.0,23,-99.99,,,-99.99,,2013-05-11 21:11:00,
2013-05-11 15:21:00,56.0,20.0,30.26,NW,306,11.0,-999.0,24,-99.99,,,-99.99,,2013-05-11 21:21:00,
2013-05-11 15:33:00,57.0,17.0,30.27,NW,316,8.0,-999.0,21,-99.99,,,-99.99,,2013-05-11 21:33:00,
2013-05-11 15:43:00,58.0,18.0,30.27,North,-999,13.0,-999.0,21,-99.99,,,-99.99,,2013-05-11 21:43:00,
2013-05-11 15:52:00,57.0,19.0,30.27,North,-999,4.0,-999.0,22,-99.99,,,-99.99,,2013-05-11 21:52:00,
2013-05-11 16:02:00,56.0,18.0,30.26,WNW,289,6.0,-999.0,22,-99.99,,,-99.99,,2013-05-11 22:02:00,
2013-05-11 16:13:00,58.0,17.0,30.26,NNW,344,9.0,-999.0,20,-99.99,,,-99.99,,2013-05-11 22:13:00,
2013-05-11 16:23:00,58.0,16.0,30.25,NW,312,7.0,-999.0,19,-99.99,,,-99.99,,2013-05-11 22:23:00,
2013-05-11 16:33:00,59.0,15.0,30.26,NNE,32,1.0,-999.0,18,-99.99,,,-99.99,,2013-05-11 22:33:00,
2013-05-11 16:42:00,57.0,16.0,30.24,WNW,292,7.0,-999.0,20,-99.99,,,-99.99,,2013-05-11 22:42:00,
2013-05-11 16:52:00,59.0,17.0,30.24,North,10,5.0,-999.0,19,-99.99,,,-99.99,,2013-05-11 22:52:00,
2013-05-11 17:02:00,59.0,17.0,30.23,NNE,20,8.0,-999.0,19,-99.99,,,-99.99,,2013-05-11 23:02:00,
2013-05-11 17:12:00,59.0,16.0,30.23,NNE,16,9.0,-999.0,18,-99.99,,,-99.99,,2013-05-11 23:12:00,
2013-05-11 17:22:00,58.0,16.0,30.22,NE,49,5.0,-999.0,19,-99.99,,,-99.99,,2013-05-11 23:22:00,
2013-05-11 17:32:00,59.0,17.0,30.23,NNW,327,3.0,-999.0,19,-99.99,,,-99.99,,2013-05-11 23:32:00,
2013-05-11 17:42:00,59.0,15.0,30.23,NW,321,6.0,-999.0,18,-99.99,,,-99.99,,2013-05-11 23:42:00,
2013-05-11 17:52:00,59.0,18.0,30.23,NNE,17,5.0,-999.0,20,-99.99,,,-99.99,,2013-05-11 23:52:00,
2013-05-11 18:01:00,59.0,18.0,30.23,NNE,17,5.0,-999.0,20,-99.99,,,-99.99,,2013-05-12 00:01:00,
2013-05-11 18:11:00,59.0,16.0,30.22,NNE,24,12.0,-999.0,18,-99.99,,,-99.99,,2013-05-12 00:11:00,
2013-05-11 18:21:00,58.0,17.0,30.22,North,8,8.0,-999.0,20,-99.99,,,-99.99,,2013-05-12 00:21:00,
2013-05-11 18:32:00,59.0,15.0,30.22,NE,50,0.0,-999.0,18,-99.99,,,-99.99,,2013-05-12 00:32:00,
2013-05-11 18:42:00,59.0,15.0,30.22,NE,50,0.0,-999.0,18,-99.99,,,-99.99,,2013-05-12 00:42:00,
2013-05-11 18:52:00,58.0,16.0,30.20,NNE,33,6.0,-999.0,19,-99.99,,,-99.99,,2013-05-12 00:52:00,
2013-05-11 19:01:00,58.0,16.0,30.20,NNE,33,6.0,-999.0,19,-99.99,,,-99.99,,2013-05-12 01:01:00,
2013-05-11 19:11:00,56.0,18.0,30.21,NE,50,6.0,-999.0,22,-99.99,,,-99.99,,2013-05-12 01:11:00,
2013-05-11 19:21:00,56.0,17.0,30.21,ENE,63,6.0,-999.0,21,-99.99,,,-99.99,,2013-05-12 01:21:00,
2013-05-11 19:32:00,56.0,19.0,30.20,ENE,67,7.0,-999.0,23,-99.99,,,-99.99,,2013-05-12 01:32:00,
2013-05-11 19:42:00,54.0,20.0,30.21,ENE,74,8.0,-999.0,26,-99.99,,,-99.99,,2013-05-12 01:42:00,
2013-05-11 19:52:00,54.0,21.0,30.20,East,92,10.0,-999.0,27,-99.99,,,-99.99,,2013-05-12 01:52:00,
2013-05-11 20:01:00,53.0,20.0,30.20,East,82,12.0,-999.0,27,-99.99,,,-99.99,,2013-05-12 02:01:00,
2013-05-11 20:11:00,53.0,20.0,30.18,East,89,11.0,-999.0,28,-99.99,,,-99.99,,2013-05-12 02:11:00,
2013-05-11 20:22:00,51.0,22.0,30.19,East,90,11.0,-999.0,31,-99.99,,,-99.99,,2013-05-12 02:22:00,
2013-05-11 20:32:00,49.0,21.0,30.20,ESE,103,10.0,-999.0,34,-99.99,,,-99.99,,2013-05-12 02:32:00,
2013-05-11 20:42:00,50.0,19.0,30.18,East,90,12.0,-999.0,29,-99.99,,,-99.99,,2013-05-12 02:42:00,
2013-05-11 20:52:00,49.0,20.0,30.21,ESE,104,10.0,-999.0,31,-99.99,,,-99.99,,2013-05-12 02:52:00,
2013-05-11 21:01:00,47.0,19.0,30.19,East,100,11.0,-999.0,32,-99.99,,,-99.99,,2013-05-12 03:01:00,
2013-05-11 21:11:00,47.0,19.0,30.17,East,99,10.0,-999.0,33,-99.99,,,-99.99,,2013-05-12 03:11:00,
2013-05-11 21:22:00,46.0,19.0,30.18,East,100,10.0,-999.0,34,-99.99,,,-99.99,,2013-05-12 03:22:00,
2013-05-11 21:33:00,46.0,18.0,30.19,East,101,11.0,-999.0,32,-99.99,,,-99.99,,2013-05-12 03:33:00,
2013-05-11 21:43:00,47.0,17.0,30.20,East,94,12.0,-999.0,30,-99.99,,,-99.99,,2013-05-12 03:43:00,
2013-05-11 21:53:00,46.0,18.0,30.17,East,95,12.0,-999.0,32,-99.99,,,-99.99,,2013-05-12 03:53:00,
2013-05-11 22:03:00,-999.0,-99.9,30.19,East,95,14.0,-999.0,31,-99.99,,,-99.99,,2013-05-12 04:03:00,
2013-05-11 22:12:00,46.0,17.0,30.19,ESE,112,14.0,-999.0,31,-99.99,,,-99.99,,2013-05-12 04:12:00,
2013-05-11 22:22:00,46.0,15.0,30.18,ESE,118,19.0,-999.0,28,-99.99,,,-99.99,,2013-05-12 04:22:00,
2013-05-11 22:33:00,46.0,16.0,30.19,ESE,110,15.0,-999.0,30,-99.99,,,-99.99,,2013-05-12 04:33:00,
2013-05-11 22:43:00,45.0,16.0,30.17,ESE,118,18.0,-999.0,30,-99.99,,,-99.99,,2013-05-12 04:43:00,
2013-05-11 22:52:00,45.0,17.0,30.19,ESE,120,17.0,-999.0,33,-99.99,,,-99.99,,2013-05-12 04:52:00,
2013-05-11 23:02:00,45.0,17.0,30.19,ESE,120,17.0,-999.0,33,-99.99,,,-99.99,,2013-05-12 05:02:00,
2013-05-11 23:12:00,45.0,17.0,30.18,ESE,113,16.0,-999.0,33,-99.99,,,-99.99,,2013-05-12 05:12:00,
2013-05-11 23:22:00,45.0,17.0,30.18,ESE,110,15.0,-999.0,33,-99.99,,,-99.99,,2013-05-12 05:22:00,
2013-05-11 23:32:00,44.0,17.0,30.21,ESE,111,18.0,-999.0,33,-99.99,,,-99.99,,2013-05-12 05:32:00,
2013-05-11 23:42:00,44.0,17.0,30.20,ESE,121,15.0,-999.0,34,-99.99,,,-99.99,,2013-05-12 05:42:00,
2013-05-11 23:51:00,44.0,16.0,30.19,SE,126,18.0,-999.0,33,-99.99,,,-99.99,,2013-05-12 05:51:00,